Time;durP1;ratioP1;P1;durP2;ratioP2;P2;SDS_P1;SDS_P2;PMS_P1;PMS_P2;Temp;Humidity;BMP_temperature;BMP_pressure;BME280_temperature;BME280_humidity;BME280_pressure;Samples;Min_cycle;Max_cycle;Signal;HPM_P1;HPM_P2
2021/07/26 00:00:29;;;;;;;10.45;6.63;;;;;;;15.24;65.79;99723.16;5051780;28;20060;-56
2021/07/26 00:02:55;;;;;;;12.40;6.50;;;;;;;15.22;66.01;99728.75;5051590;28;20055;-54
2021/07/26 00:05:21;;;;;;;8.65;5.60;;;;;;;15.19;66.01;99729.28;5051496;28;20055;-58
2021/07/26 00:07:47;;;;;;;9.00;5.70;;;;;;;15.17;65.79;99726.84;5051275;28;20036;-58
2021/07/26 00:10:12;;;;;;;11.98;6.95;;;;;;;15.14;66.30;99732.69;5033604;28;20087;-58
2021/07/26 00:12:38;;;;;;;11.38;6.25;;;;;;;15.15;65.71;99736.19;5051315;28;20041;-57
2021/07/26 00:15:06;;;;;;;12.18;6.40;;;;;;;15.12;66.16;99732.19;5051575;28;20156;-58
2021/07/26 00:17:33;;;;;;;13.23;6.57;;;;;;;15.12;66.04;99734.06;5051051;28;20090;-58
2021/07/26 00:20:00;;;;;;;9.40;6.82;;;;;;;15.10;66.18;99726.28;5051121;28;20064;-57
2021/07/26 00:22:26;;;;;;;10.98;6.43;;;;;;;15.10;66.57;99731.63;5051206;28;20041;-57
2021/07/26 00:24:52;;;;;;;15.35;7.10;;;;;;;15.09;66.39;99734.53;5049972;28;20045;-58
2021/07/26 00:27:18;;;;;;;12.23;6.00;;;;;;;15.08;66.42;99731.06;5050154;28;20094;-56
2021/07/26 00:29:44;;;;;;;11.65;7.22;;;;;;;15.07;66.43;99734.81;5051491;28;20045;-58
2021/07/26 00:32:10;;;;;;;10.40;7.18;;;;;;;15.09;66.33;99730.03;5051615;28;20384;-57
2021/07/26 00:34:35;;;;;;;13.57;7.35;;;;;;;15.07;65.83;99731.34;5051225;28;20049;-58
2021/07/26 00:37:10;;;;;;;10.27;6.80;;;;;;;15.06;66.07;99729.72;5051551;28;20044;-56
2021/07/26 00:39:36;;;;;;;9.98;7.38;;;;;;;15.03;66.34;99728.41;5051103;28;20602;-57
2021/07/26 00:42:03;;;;;;;10.93;7.05;;;;;;;15.02;66.61;99732.09;5051514;28;20041;-56
2021/07/26 00:44:30;;;;;;;10.63;6.50;;;;;;;14.99;66.90;99733.41;5049840;28;20052;-57
2021/07/26 00:46:56;;;;;;;9.50;7.50;;;;;;;14.98;67.17;99736.38;5050930;28;20099;-57
2021/07/26 00:49:23;;;;;;;12.68;7.63;;;;;;;14.97;66.40;99732.91;5050059;28;20144;-58
2021/07/26 00:51:56;;;;;;;13.48;7.65;;;;;;;14.97;66.77;99737.41;5049942;28;20040;-56
2021/07/26 00:54:27;;;;;;;12.57;7.85;;;;;;;14.97;66.74;99734.72;5051319;28;20449;-56
2021/07/26 00:56:53;;;;;;;;;;;;;;;14.95;67.28;99745.69;5051726;28;20379;-56
2021/07/26 00:59:19;;;;;;;10.38;7.05;;;;;;;14.94;66.73;99737.91;5051211;28;19924;-57
2021/07/26 01:01:45;;;;;;;11.63;7.85;;;;;;;14.91;67.29;99733.94;5051209;28;20037;-56
2021/07/26 01:04:11;;;;;;;13.15;8.07;;;;;;;14.91;66.87;99739.25;5049759;28;20132;-57
2021/07/26 01:06:38;;;;;;;16.25;8.57;;;;;;;14.90;67.05;99734.16;5051169;28;20499;-57
2021/07/26 01:09:04;;;;;;;16.67;7.15;;;;;;;14.92;66.60;99732.06;5051078;28;20045;-56
2021/07/26 01:11:30;;;;;;;14.13;8.07;;;;;;;14.94;66.61;99737.91;5050969;28;20491;-59
2021/07/26 01:13:55;;;;;;;11.02;7.70;;;;;;;14.94;66.33;99736.09;5050800;28;20055;-56
2021/07/26 01:16:23;;;;;;;15.48;8.50;;;;;;;14.92;66.62;99737.41;5049400;28;20122;-56
2021/07/26 01:18:49;;;;;;;10.55;7.75;;;;;;;14.92;66.87;99738.19;5051050;28;20045;-58
2021/07/26 01:21:17;;;;;;;14.07;7.43;;;;;;;14.92;66.37;99732.84;5053145;28;20041;-57
2021/07/26 01:23:47;;;;;;;13.60;8.07;;;;;;;14.87;66.49;99724.00;5053496;28;20103;-57
2021/07/26 01:26:17;;;;;;;12.82;7.45;;;;;;;14.92;66.47;99735.53;5054618;28;20064;-57
2021/07/26 01:28:45;;;;;;;9.37;7.43;;;;;;;14.94;66.11;99738.75;5053020;28;20464;-55
2021/07/26 01:31:11;;;;;;;13.30;8.30;;;;;;;14.98;66.06;99742.50;5054583;28;20036;-56
2021/07/26 01:33:38;;;;;;;13.80;8.23;;;;;;;14.98;65.93;99744.38;5054343;28;20057;-58
2021/07/26 01:36:05;;;;;;;8.55;6.80;;;;;;;15.01;66.04;99743.06;5054243;28;20478;-57
2021/07/26 01:38:30;;;;;;;15.50;7.65;;;;;;;15.01;66.24;99741.19;5054120;28;20131;-56
2021/07/26 01:41:11;;;;;;;16.65;8.02;;;;;;;15.04;65.81;99746.00;5054493;28;20112;-56
2021/07/26 01:44:00;;;;;;;10.05;7.05;;;;;;;15.02;65.90;99739.31;5054056;28;20399;-56
2021/07/26 01:46:29;;;;;;;11.07;7.05;;;;;;;15.04;65.88;99742.53;5054402;28;20045;-55
2021/07/26 01:49:15;;;;;;;11.00;7.53;;;;;;;15.05;66.08;99746.81;5054058;28;20098;-56
2021/07/26 01:51:44;;;;;;;16.10;7.63;;;;;;;15.04;66.01;99746.00;5054253;28;20068;-56
2021/07/26 01:54:11;;;;;;;11.70;7.72;;;;;;;15.05;65.83;99752.16;5052643;28;20045;-58
2021/07/26 01:56:37;;;;;;;15.23;7.82;;;;;;;15.05;66.31;99741.47;5052606;28;20093;-56
2021/07/26 01:59:03;;;;;;;14.05;7.95;;;;;;;15.05;66.26;99752.94;5054120;28;20041;-57
2021/07/26 02:01:30;;;;;;;11.10;7.70;;;;;;;15.16;66.10;99756.50;5054049;28;20037;-57
2021/07/26 02:03:56;;;;;;;10.88;7.50;;;;;;;15.53;65.09;99752.91;5053966;28;20482;-58
2021/07/26 02:06:22;;;;;;;9.05;7.53;;;;;;;16.01;63.35;99764.34;5054125;28;20044;-57
2021/07/26 02:08:48;;;;;;;11.60;7.65;;;;;;;16.43;62.03;99761.47;5052306;28;20056;-58
2021/07/26 02:11:14;;;;;;;10.05;7.75;;;;;;;16.80;60.72;99757.75;5053741;28;20037;-57
2021/07/26 02:13:40;;;;;;;10.88;7.38;;;;;;;17.23;59.50;99755.53;5053142;28;20139;-58
2021/07/26 02:16:12;;;;;;;10.18;7.55;;;;;;;17.59;58.69;99758.91;5053235;28;20172;-58
2021/07/26 02:18:38;;;;;;;13.20;8.10;;;;;;;17.87;57.45;99759.34;5052463;28;20123;-58
2021/07/26 02:21:03;;;;;;;12.88;7.78;;;;;;;18.10;57.01;99752.50;5053401;28;20115;-57
2021/07/26 02:23:29;;;;;;;14.20;7.72;;;;;;;18.41;55.78;99753.06;5053326;28;20049;-58
2021/07/26 02:25:55;;;;;;;14.45;8.55;;;;;;;18.75;54.95;99765.72;5053498;28;20071;-56
2021/07/26 02:28:21;;;;;;;13.50;7.63;;;;;;;19.13;53.90;99763.22;5053511;28;20506;-58
2021/07/26 02:30:47;;;;;;;13.48;7.93;;;;;;;19.40;53.00;99763.44;5051560;28;20049;-57
2021/07/26 02:33:13;;;;;;;10.63;7.63;;;;;;;19.56;52.60;99760.56;5053315;28;20045;-58
2021/07/26 02:35:39;;;;;;;10.43;7.97;;;;;;;19.76;51.92;99765.72;5053158;28;20097;-57
2021/07/26 02:38:05;;;;;;;12.80;7.32;;;;;;;20.10;51.19;99770.13;5052700;28;20131;-58
2021/07/26 02:40:30;;;;;;;11.65;8.00;;;;;;;20.35;50.40;99769.75;5052756;28;20048;-58
2021/07/26 02:42:56;;;;;;;13.43;7.35;;;;;;;20.62;49.79;99769.09;5052855;28;20051;-58
2021/07/26 02:45:26;;;;;;;14.30;7.05;;;;;;;20.80;49.20;99769.34;5052928;28;20411;-58
2021/07/26 02:47:52;;;;;;;16.40;8.40;;;;;;;21.02;48.78;99766.78;5052703;28;20510;-58
2021/07/26 02:50:19;;;;;;;11.77;7.45;;;;;;;21.28;48.48;99783.28;5051550;28;20052;-57
2021/07/26 02:52:45;;;;;;;13.07;8.05;;;;;;;21.55;47.84;99779.00;5052667;28;20147;-58
2021/07/26 02:55:11;;;;;;;12.32;7.28;;;;;;;21.75;46.97;99778.59;5052709;28;20127;-58
2021/07/26 02:57:37;;;;;;;13.35;7.63;;;;;;;22.02;47.05;99781.56;5052508;28;20045;-57
2021/07/26 03:00:05;;;;;;;9.80;7.22;;;;;;;22.20;45.38;99775.22;5052754;28;20056;-61
2021/07/26 03:02:33;;;;;;;18.08;7.93;;;;;;;22.43;45.93;99781.44;5052721;28;20067;-58
2021/07/26 03:04:59;;;;;;;15.52;7.60;;;;;;;22.60;45.15;99784.28;5051552;28;20040;-57
2021/07/26 03:07:25;;;;;;;11.07;7.22;;;;;;;22.72;44.84;99785.63;5052443;28;20044;-58
2021/07/26 03:09:50;;;;;;;12.13;7.60;;;;;;;22.97;44.63;99787.72;5051123;28;20036;-59
2021/07/26 03:12:16;;;;;;;11.45;7.10;;;;;;;23.17;44.71;99789.06;5052789;28;20140;-58
2021/07/26 03:14:42;;;;;;;13.32;6.82;;;;;;;23.38;43.83;99788.50;5052400;28;20110;-58
2021/07/26 03:17:08;;;;;;;11.10;6.60;;;;;;;23.53;42.90;99783.50;5052101;28;20134;-59
2021/07/26 03:19:34;;;;;;;11.32;7.28;;;;;;;23.69;42.10;99789.25;5050823;28;20051;-58
2021/07/26 03:22:41;;;;;;;10.75;6.85;;;;;;;23.80;41.80;99789.78;5052485;28;20032;-56
2021/07/26 03:25:07;;;;;;;12.55;7.20;;;;;;;24.04;41.99;99789.34;5051917;28;20110;-58
2021/07/26 03:27:33;;;;;;;12.70;6.43;;;;;;;24.16;41.95;99792.22;5051019;28;20133;-57
2021/07/26 03:29:59;;;;;;;10.70;6.68;;;;;;;24.37;41.30;99799.69;5051989;28;20508;-60
2021/07/26 03:32:25;;;;;;;8.60;5.90;;;;;;;24.57;40.82;99798.28;5050912;28;20131;-57
2021/07/26 03:34:50;;;;;;;8.55;5.50;;;;;;;24.61;40.12;99800.03;5052162;28;20037;-59
2021/07/26 03:37:16;;;;;;;9.98;5.63;;;;;;;24.66;40.27;99804.50;5050768;28;20044;-57
2021/07/26 03:39:42;;;;;;;10.02;4.95;;;;;;;24.83;39.51;99793.63;5051750;28;20091;-58
2021/07/26 03:42:08;;;;;;;7.22;4.30;;;;;;;24.98;38.46;99795.03;5051507;28;20047;-58
2021/07/26 03:44:33;;;;;;;7.63;4.38;;;;;;;25.12;37.78;99789.41;5050531;28;20052;-58
2021/07/26 03:46:59;;;;;;;7.20;4.53;;;;;;;25.29;37.65;99797.47;5052061;28;20460;-57
2021/07/26 03:49:25;;;;;;;4.78;4.07;;;;;;;25.39;37.90;99796.34;5051544;28;20048;-58
2021/07/26 03:51:51;;;;;;;6.57;4.38;;;;;;;25.50;36.96;99794.84;5051773;28;20056;-57
2021/07/26 03:54:16;;;;;;;7.68;4.35;;;;;;;25.50;37.28;99796.75;5051729;28;20037;-58
2021/07/26 03:56:42;;;;;;;6.13;3.78;;;;;;;25.36;38.19;99792.34;5051705;28;20055;-57
2021/07/26 03:59:08;;;;;;;5.68;4.40;;;;;;;25.45;37.03;99799.66;5051770;28;20045;-58
2021/07/26 04:01:34;;;;;;;5.22;3.55;;;;;;;25.48;36.88;99802.53;5051634;28;20056;-57
2021/07/26 04:03:59;;;;;;;5.80;3.50;;;;;;;25.56;36.84;99798.97;5051393;28;20048;-57
2021/07/26 04:06:25;;;;;;;5.60;4.05;;;;;;;25.52;37.01;99794.50;5051564;28;20045;-58
2021/07/26 04:08:53;;;;;;;6.00;3.42;;;;;;;25.61;37.37;99793.31;5051272;28;20119;-59
2021/07/26 04:11:28;;;;;;;6.20;3.45;;;;;;;25.74;36.59;99790.72;5051455;28;20051;-58
2021/07/26 04:14:00;;;;;;;5.75;3.60;;;;;;;25.85;36.60;99791.16;5051433;28;20505;-58
2021/07/26 04:16:25;;;;;;;6.93;3.88;;;;;;;25.96;36.54;99793.16;5051184;28;20053;-58
2021/07/26 04:18:52;;;;;;;5.55;3.67;;;;;;;26.07;36.09;99793.56;5051424;28;20044;-59
2021/07/26 04:21:19;;;;;;;7.20;4.18;;;;;;;26.13;36.33;99791.44;5051411;28;20036;-58
2021/07/26 04:23:44;;;;;;;7.15;4.38;;;;;;;26.14;36.12;99793.81;5051496;28;20064;-58
2021/07/26 04:26:10;;;;;;;10.02;4.53;;;;;;;26.15;36.54;99792.72;5049880;28;20525;-57
2021/07/26 04:28:56;;;;;;;5.75;3.70;;;;;;;26.22;35.95;99797.59;5050036;28;20537;-58
2021/07/26 04:31:22;;;;;;;10.13;4.85;;;;;;;26.32;35.81;99791.75;5051043;28;20037;-58
2021/07/26 04:33:59;;;;;;;6.93;4.50;;;;;;;26.47;35.66;99790.34;5051407;28;20122;-58
2021/07/26 04:36:25;;;;;;;8.30;5.65;;;;;;;26.61;35.44;99795.53;5050734;28;20084;-58
2021/07/26 04:38:51;;;;;;;8.45;6.20;;;;;;;26.49;35.54;99796.25;5051229;28;20053;-60
2021/07/26 04:41:17;;;;;;;9.18;7.15;;;;;;;26.58;36.02;99786.13;5049746;28;20414;-58
2021/07/26 04:43:42;;;;;;;8.32;6.63;;;;;;;26.42;36.28;99785.13;5051207;28;20171;-59
2021/07/26 04:46:09;;;;;;;7.90;7.07;;;;;;;26.56;36.40;99785.69;5051152;28;20087;-58
2021/07/26 04:48:36;;;;;;;12.45;10.18;;;;;;;26.70;35.65;99786.16;5049855;28;20706;-59
2021/07/26 04:51:02;;;;;;;11.70;10.55;;;;;;;26.78;35.58;99775.53;5051141;28;20037;-58
2021/07/26 04:53:28;;;;;;;13.13;10.90;;;;;;;26.85;35.68;99787.44;5050786;28;20045;-59
2021/07/26 04:55:54;;;;;;;13.57;9.75;;;;;;;26.98;35.57;99787.47;5054695;28;20049;-57
2021/07/26 04:58:38;;;;;;;11.07;9.95;;;;;;;27.08;35.65;99778.88;5054631;28;20470;-58
2021/07/26 05:01:04;;;;;;;12.18;8.50;;;;;;;27.13;35.68;99778.66;5054664;28;20125;-58
2021/07/26 05:03:30;;;;;;;10.27;7.70;;;;;;;27.02;35.73;99782.94;5053100;28;20502;-59
2021/07/26 05:05:56;;;;;;;10.20;6.50;;;;;;;26.88;36.15;99775.88;5054796;28;20044;-57
2021/07/26 05:08:22;;;;;;;8.43;6.55;;;;;;;26.66;36.17;99787.97;5054714;28;20059;-58
2021/07/26 05:10:49;;;;;;;9.65;6.10;;;;;;;26.43;36.77;99775.84;5054594;28;20051;-57
2021/07/26 05:13:15;;;;;;;8.73;6.00;;;;;;;26.24;36.85;99776.34;5054429;28;20128;-58
2021/07/26 05:15:41;;;;;;;6.60;4.93;;;;;;;26.09;36.89;99779.63;5054405;28;20048;-58
2021/07/26 05:18:07;;;;;;;7.65;4.82;;;;;;;25.97;37.51;99775.75;5054569;28;20167;-59
2021/07/26 05:20:32;;;;;;;6.95;4.65;;;;;;;25.95;37.49;99778.00;5036403;28;20097;-58
2021/07/26 05:22:59;;;;;;;9.20;3.88;;;;;;;25.86;37.19;99779.19;5054058;28;20494;-58
2021/07/26 05:25:25;;;;;;;6.07;4.22;;;;;;;25.72;38.00;99769.31;5054204;28;20436;-58
2021/07/26 05:27:50;;;;;;;6.25;4.28;;;;;;;25.47;38.75;99775.69;5054460;28;20106;-58
2021/07/26 05:30:17;;;;;;;5.22;3.80;;;;;;;25.36;39.36;99772.56;5054123;28;20037;-59
2021/07/26 05:32:42;;;;;;;10.85;4.40;;;;;;;25.29;39.17;99769.56;5052835;28;20045;-58
2021/07/26 05:35:08;;;;;;;4.35;3.70;;;;;;;25.14;39.52;99779.81;5053949;28;20128;-59
2021/07/26 05:37:35;;;;;;;3.90;3.38;;;;;;;25.01;39.76;99771.88;5053822;28;20048;-59
2021/07/26 05:40:01;;;;;;;4.20;3.30;;;;;;;24.90;39.14;99777.66;5054029;28;20043;-59
2021/07/26 05:42:27;;;;;;;5.53;3.60;;;;;;;24.83;39.51;99773.84;5053783;28;20513;-59
2021/07/26 05:44:56;;;;;;;7.18;3.10;;;;;;;24.77;39.63;99770.50;5053928;28;20041;-58
2021/07/26 05:47:22;;;;;;;7.27;3.87;;;;;;;24.74;39.74;99765.75;5054243;28;20160;-58
2021/07/26 05:49:48;;;;;;;4.70;3.30;;;;;;;24.70;40.32;99776.41;5053846;28;20139;-59
2021/07/26 05:52:13;;;;;;;6.88;3.60;;;;;;;24.65;40.26;99773.88;5053439;28;20060;-60
2021/07/26 05:54:39;;;;;;;3.72;3.30;;;;;;;24.60;40.36;99773.25;5052628;28;20045;-59
2021/07/26 05:57:10;;;;;;;7.22;3.30;;;;;;;24.59;40.21;99785.19;5053948;28;20049;-58
2021/07/26 05:59:37;;;;;;;7.00;4.03;;;;;;;24.56;40.78;99777.72;5053773;28;20045;-58
2021/07/26 06:02:03;;;;;;;4.45;3.67;;;;;;;24.57;40.43;99776.63;5052187;28;20155;-58
2021/07/26 06:04:29;;;;;;;4.18;3.28;;;;;;;24.59;40.02;99769.75;5053410;28;20502;-58
2021/07/26 06:06:55;;;;;;;6.38;3.15;;;;;;;24.55;40.70;99768.00;5053046;28;20056;-58
2021/07/26 06:09:22;;;;;;;5.03;3.00;;;;;;;24.56;40.54;99764.97;5053510;28;20045;-58
2021/07/26 06:11:51;;;;;;;6.53;3.20;;;;;;;24.56;40.90;99759.56;5051948;28;20048;-59
2021/07/26 06:14:18;;;;;;;5.35;3.10;;;;;;;24.60;41.26;99770.56;5053242;28;20037;-57
2021/07/26 06:16:45;;;;;;;5.78;3.33;;;;;;;24.54;40.54;99764.50;5053163;28;20049;-58
2021/07/26 06:19:11;;;;;;;3.92;3.05;;;;;;;24.51;40.50;99759.72;5053405;28;20052;-58
2021/07/26 06:21:42;;;;;;;4.22;2.70;;;;;;;24.54;40.06;99769.13;5053270;28;20041;-59
2021/07/26 06:24:08;;;;;;;4.53;3.65;;;;;;;24.58;40.98;99768.16;5052027;28;20106;-58
2021/07/26 06:26:34;;;;;;;3.60;3.10;;;;;;;24.54;39.73;99767.22;5053412;28;20410;-59
2021/07/26 06:28:59;;;;;;;3.20;2.90;;;;;;;24.56;40.40;99766.88;5052076;28;20037;-59
2021/07/26 06:31:25;;;;;;;6.10;3.10;;;;;;;24.52;40.66;99757.81;5051786;28;20041;-58
2021/07/26 06:33:51;;;;;;;5.40;2.78;;;;;;;24.53;40.13;99762.91;5052890;28;20132;-58
2021/07/26 06:36:17;;;;;;;6.53;3.30;;;;;;;24.51;39.65;99753.50;5053072;28;20047;-58
2021/07/26 06:38:42;;;;;;;5.45;2.88;;;;;;;24.60;40.06;99765.91;5052836;28;20082;-59
2021/07/26 06:41:08;;;;;;;3.92;2.75;;;;;;;24.63;39.93;99759.84;5053040;28;20053;-58
2021/07/26 06:43:34;;;;;;;4.57;3.08;;;;;;;24.69;39.18;99766.69;5048862;28;20637;-57
2021/07/26 06:46:04;;;;;;;5.97;2.92;;;;;;;24.76;40.18;99771.63;5049857;28;20483;-57
2021/07/26 06:48:30;;;;;;;4.22;2.72;;;;;;;24.81;40.07;99765.25;5047993;28;20044;-58
2021/07/26 06:50:55;;;;;;;4.43;3.08;;;;;;;24.77;39.50;99765.09;5043947;28;20040;-59
2021/07/26 06:53:21;;;;;;;4.85;2.80;;;;;;;24.75;39.06;99763.81;5048440;28;20052;-59
2021/07/26 06:55:48;;;;;;;3.92;2.60;;;;;;;24.74;38.22;99765.75;5031619;28;20037;-59
2021/07/26 06:58:14;;;;;;;4.28;2.90;;;;;;;24.74;37.99;99764.91;5048457;28;20063;-60
2021/07/26 07:00:39;;;;;;;5.80;3.40;;;;;;;24.73;37.64;99764.13;5040212;28;20053;-59
2021/07/26 07:03:05;;;;;;;4.47;2.78;;;;;;;24.75;38.52;99769.25;5048697;28;20088;-60
2021/07/26 07:05:32;;;;;;;5.40;2.85;;;;;;;24.74;37.63;99768.44;5047452;28;20040;-59
2021/07/26 07:07:58;;;;;;;6.72;2.45;;;;;;;24.80;36.43;99772.56;5047468;28;20476;-57
2021/07/26 07:10:24;;;;;;;3.13;2.20;;;;;;;24.84;36.82;99765.38;5048667;28;20037;-59
2021/07/26 07:12:51;;;;;;;7.85;2.60;;;;;;;24.92;36.66;99761.84;5015394;28;20540;-58
2021/07/26 07:15:19;;;;;;;3.38;2.25;;;;;;;24.99;36.75;99766.78;5050619;28;20048;-57
2021/07/26 07:17:47;;;;;;;6.07;2.45;;;;;;;25.05;36.15;99767.38;5043916;28;20065;-59
2021/07/26 07:20:13;;;;;;;3.50;2.40;;;;;;;25.07;36.17;99765.94;5028163;28;20049;-59
2021/07/26 07:22:39;;;;;;;4.30;2.80;;;;;;;25.17;35.86;99770.25;5030527;28;20049;-58
2021/07/26 07:25:05;;;;;;;4.03;2.53;;;;;;;25.18;36.53;99769.13;5030695;28;20048;-58
2021/07/26 07:27:31;;;;;;;3.28;2.60;;;;;;;25.26;36.69;99771.00;5028142;28;20046;-59
2021/07/26 07:29:57;;;;;;;4.35;2.50;;;;;;;25.27;36.17;99771.81;5043244;28;20049;-57
2021/07/26 07:32:23;;;;;;;2.40;2.20;;;;;;;25.22;35.51;99767.34;5030163;28;20087;-57
2021/07/26 07:34:49;;;;;;;4.95;2.80;;;;;;;25.32;35.28;99772.41;5029242;28;20053;-57
2021/07/26 07:37:14;;;;;;;3.58;2.58;;;;;;;25.30;35.50;99768.44;5029039;28;20136;-56
2021/07/26 07:39:42;;;;;;;3.53;2.53;;;;;;;25.26;35.89;99768.28;5028089;28;20049;-59
2021/07/26 07:42:08;;;;;;;7.80;2.70;;;;;;;25.40;35.82;99765.34;5029017;28;20041;-56
2021/07/26 07:44:34;;;;;;;4.80;2.30;;;;;;;25.58;34.64;99769.56;5029539;28;20053;-58
2021/07/26 07:47:01;;;;;;;3.08;2.47;;;;;;;25.73;34.07;99765.47;5045402;28;20075;-58
2021/07/26 07:49:27;;;;;;;3.38;2.35;;;;;;;25.93;33.36;99763.16;5049165;28;20048;-60
2021/07/26 07:51:54;;;;;;;2.88;2.13;;;;;;;26.19;32.88;99769.16;5047865;28;20079;-59
2021/07/26 07:54:20;;;;;;;3.15;2.00;;;;;;;26.52;32.06;99768.41;5049647;28;20052;-57
2021/07/26 07:56:47;;;;;;;6.00;2.22;;;;;;;26.84;32.63;99769.53;5047424;28;20068;-58
2021/07/26 07:59:13;;;;;;;2.78;2.20;;;;;;;27.05;31.50;99765.94;5047850;28;20047;-58
2021/07/26 08:01:40;;;;;;;5.07;1.90;;;;;;;27.27;30.98;99767.47;5048013;28;20037;-59
2021/07/26 08:04:06;;;;;;;4.85;2.47;;;;;;;27.51;31.62;99767.47;5046718;28;20049;-52
2021/07/26 08:06:34;;;;;;;5.00;2.30;;;;;;;27.63;30.48;99777.53;5031710;28;20033;-57
2021/07/26 08:09:00;;;;;;;3.03;2.55;;;;;;;27.58;30.29;99775.84;5048032;28;20053;-55
2021/07/26 08:11:26;;;;;;;3.38;2.13;;;;;;;27.51;30.78;99770.19;5049507;28;20596;-56
2021/07/26 08:13:52;;;;;;;4.32;2.25;;;;;;;27.33;30.58;99772.34;5013751;28;20045;-59
2021/07/26 08:16:22;;;;;;;3.25;2.22;;;;;;;27.24;30.72;99771.66;5047704;28;20068;-58
2021/07/26 08:18:48;;;;;;;3.50;2.50;;;;;;;27.34;30.81;99773.13;5045223;28;20056;-57
2021/07/26 08:21:14;;;;;;;4.07;2.30;;;;;;;27.58;30.11;99772.31;5047233;28;20041;-57
2021/07/26 08:23:41;;;;;;;3.65;2.28;;;;;;;27.72;30.49;99766.53;5047198;28;20140;-58
2021/07/26 08:26:06;;;;;;;6.75;2.40;;;;;;;27.78;29.42;99774.16;5047345;28;20148;-61
2021/07/26 08:28:32;;;;;;;5.47;2.45;;;;;;;27.79;30.07;99767.53;5048331;28;20055;-59
2021/07/26 08:31:00;;;;;;;2.75;2.17;;;;;;;27.78;29.88;99770.59;5050163;28;20094;-57
2021/07/26 08:33:26;;;;;;;2.42;2.08;;;;;;;27.72;30.40;99769.25;5045062;28;20505;-58
2021/07/26 08:35:52;;;;;;;5.65;2.30;;;;;;;27.77;30.20;99772.53;5046623;28;20047;-57
2021/07/26 08:38:18;;;;;;;3.60;2.45;;;;;;;27.81;30.95;99772.66;5049285;28;20041;-58
2021/07/26 08:40:45;;;;;;;3.72;2.45;;;;;;;27.54;30.78;99774.16;5049072;28;20249;-60
2021/07/26 08:43:12;;;;;;;4.72;2.28;;;;;;;27.35;31.29;99778.22;5046907;28;20534;-59
2021/07/26 08:45:39;;;;;;;5.90;2.42;;;;;;;27.25;31.58;99777.91;5047138;28;20059;-58
2021/07/26 08:48:09;;;;;;;5.05;2.67;;;;;;;27.15;32.03;99779.16;5048363;28;20119;-58
2021/07/26 08:50:37;;;;;;;6.90;2.70;;;;;;;27.13;32.08;99781.38;5047637;28;20063;-58
2021/07/26 08:53:07;;;;;;;3.97;2.30;;;;;;;27.17;31.91;99783.09;5029916;28;20103;-58
2021/07/26 08:55:34;;;;;;;6.25;2.35;;;;;;;27.23;31.57;99772.78;5046347;28;20041;-58
2021/07/26 08:58:01;;;;;;;5.28;2.55;;;;;;;27.26;31.69;99779.47;5046401;28;20528;-59
2021/07/26 09:00:27;;;;;;;5.70;2.45;;;;;;;27.35;32.49;99782.88;5046548;28;20049;-57
2021/07/26 09:02:53;;;;;;;3.33;2.30;;;;;;;27.44;32.09;99769.94;5047084;28;20053;-58
2021/07/26 09:05:20;;;;;;;4.63;2.50;;;;;;;27.56;31.58;99769.13;5045729;28;20049;-57
2021/07/26 09:07:49;;;;;;;4.95;2.53;;;;;;;27.73;31.46;99771.63;5046962;28;20049;-58
2021/07/26 09:10:18;;;;;;;3.40;2.50;;;;;;;27.96;31.33;99771.94;5045627;28;20048;-57
2021/07/26 09:12:46;;;;;;;4.40;2.60;;;;;;;28.04;31.34;99764.78;5047514;28;20438;-59
2021/07/26 09:15:27;;;;;;;4.63;2.42;;;;;;;28.03;31.08;99760.44;5047308;28;20037;-59
2021/07/26 09:17:53;;;;;;;3.28;2.45;;;;;;;28.11;30.78;99758.72;5045610;28;20663;-58
2021/07/26 09:20:28;;;;;;;2.67;2.30;;;;;;;28.05;30.56;99753.53;5047665;28;20544;-58
2021/07/26 09:22:59;;;;;;;4.20;2.53;;;;;;;28.10;30.38;99760.69;5047011;28;20049;-58
2021/07/26 09:25:29;;;;;;;4.30;2.67;;;;;;;28.17;31.02;99760.06;5046140;28;20087;-57
2021/07/26 09:28:00;;;;;;;4.93;2.80;;;;;;;28.11;30.10;99759.53;5047268;28;20496;-58
2021/07/26 09:30:35;;;;;;;5.13;2.90;;;;;;;28.18;30.08;99756.19;5047989;28;20118;-58
2021/07/26 09:33:04;;;;;;;6.57;2.58;;;;;;;28.27;29.76;99751.41;5047429;28;20049;-57
2021/07/26 09:35:30;;;;;;;3.58;2.72;;;;;;;28.33;29.70;99758.22;5049203;28;20071;-59
2021/07/26 09:38:03;;;;;;;3.50;2.60;;;;;;;28.43;30.24;99754.22;5048221;28;20049;-58
2021/07/26 09:40:33;;;;;;;5.07;3.05;;;;;;;28.45;29.05;99747.28;5047455;28;20040;-59
2021/07/26 09:43:19;;;;;;;4.05;2.80;;;;;;;28.42;29.54;99747.97;5051949;28;20052;-57
2021/07/26 09:45:46;;;;;;;6.60;3.10;;;;;;;28.34;29.57;99748.09;5050818;28;20036;-59
2021/07/26 09:48:14;;;;;;;4.80;2.40;;;;;;;28.37;29.61;99745.44;5050653;28;20404;-59
2021/07/26 09:50:45;;;;;;;3.33;2.65;;;;;;;28.29;29.51;99749.91;5032362;28;20446;-59
2021/07/26 09:53:18;;;;;;;3.25;2.60;;;;;;;28.04;28.86;99737.53;5051279;28;20092;-60
2021/07/26 09:55:47;;;;;;;4.05;2.88;;;;;;;27.99;29.56;99752.19;5050841;28;20152;-59
2021/07/26 09:58:15;;;;;;;4.55;2.38;;;;;;;28.06;29.17;99748.84;5050291;28;20104;-59
2021/07/26 10:00:42;;;;;;;4.43;2.60;;;;;;;28.31;28.12;99749.56;5031727;28;20041;-60
2021/07/26 10:03:10;;;;;;;4.18;2.85;;;;;;;28.35;28.67;99746.94;5049589;28;20593;-58
2021/07/26 10:05:38;;;;;;;4.35;2.40;;;;;;;28.39;29.50;99739.66;5049441;28;20810;-59
2021/07/26 10:08:06;;;;;;;4.65;2.53;;;;;;;28.21;30.04;99750.09;5052451;28;20480;-57
2021/07/26 10:10:37;;;;;;;3.28;2.30;;;;;;;28.02;29.14;99740.59;5049882;28;20037;-58
2021/07/26 10:13:04;;;;;;;2.55;2.35;;;;;;;28.00;29.43;99742.88;5049905;28;20041;-58
2021/07/26 10:15:31;;;;;;;4.10;2.30;;;;;;;27.96;29.23;99743.91;5049499;28;20063;-58
2021/07/26 10:17:57;;;;;;;6.10;2.85;;;;;;;27.86;29.89;99739.75;5050775;28;20110;-59
2021/07/26 10:20:28;;;;;;;4.88;2.63;;;;;;;27.81;29.97;99734.53;5049608;28;20430;-59
2021/07/26 10:23:15;;;;;;;6.13;2.90;;;;;;;27.82;30.14;99738.84;5030358;28;20541;-58
2021/07/26 10:25:45;;;;;;;5.20;3.00;;;;;;;27.88;30.03;99732.00;5047746;28;20530;-59
2021/07/26 10:28:21;;;;;;;2.70;2.30;;;;;;;27.91;29.16;99731.31;5048177;28;20051;-59
2021/07/26 10:30:47;;;;;;;3.65;2.50;;;;;;;28.07;29.47;99728.66;5047578;28;20122;-58
2021/07/26 10:33:13;;;;;;;3.05;2.45;;;;;;;28.24;29.05;99731.09;5049867;28;20076;-59
2021/07/26 10:35:40;;;;;;;5.15;2.88;;;;;;;28.41;28.94;99729.19;5049764;28;21103;-58
2021/07/26 10:38:10;;;;;;;4.00;2.55;;;;;;;28.46;28.59;99718.06;5052362;28;20060;-58
2021/07/26 10:40:43;;;;;;;4.47;2.70;;;;;;;28.58;28.27;99718.00;5031615;28;20036;-59
2021/07/26 10:43:15;;;;;;;6.97;3.03;;;;;;;28.64;27.33;99723.97;5049480;28;20403;-59
2021/07/26 10:45:44;;;;;;;6.68;3.10;;;;;;;28.66;26.59;99719.75;5050292;28;20146;-58
2021/07/26 10:48:21;;;;;;;4.28;2.83;;;;;;;28.66;26.44;99716.25;5050797;28;20049;-55
2021/07/26 10:50:51;;;;;;;4.20;2.97;;;;;;;28.75;26.17;99714.13;5050363;28;20492;-57
2021/07/26 10:53:34;;;;;;;3.33;2.65;;;;;;;28.72;26.61;99720.28;5048284;28;20098;-58
2021/07/26 10:56:05;;;;;;;5.50;2.97;;;;;;;28.83;26.64;99717.84;5048993;28;20135;-58
2021/07/26 10:58:40;;;;;;;5.53;2.80;;;;;;;28.97;26.83;99713.53;5050886;28;20045;-58
2021/07/26 11:01:29;;;;;;;5.30;2.83;;;;;;;29.07;27.66;99717.69;5050071;28;20048;-59
2021/07/26 11:03:56;;;;;;;3.80;2.50;;;;;;;28.98;26.23;99717.84;5037383;28;20068;-59
2021/07/26 11:06:34;;;;;;;3.25;2.92;;;;;;;29.10;26.89;99716.19;5050165;28;20111;-59
2021/07/26 11:09:18;;;;;;;5.45;2.63;;;;;;;29.22;26.81;99709.84;5049008;28;20522;-58
2021/07/26 11:11:45;;;;;;;2.85;2.38;;;;;;;29.22;26.30;99707.91;5049402;28;20041;-58
2021/07/26 11:14:12;;;;;;;5.82;2.65;;;;;;;29.31;26.22;99704.97;5032466;28;20036;-59
2021/07/26 11:16:55;;;;;;;4.05;2.70;;;;;;;29.29;26.57;99710.78;5048781;28;20158;-58
2021/07/26 11:19:39;;;;;;;4.50;2.40;;;;;;;29.31;26.31;99696.78;5051498;28;20067;-57
2021/07/26 11:22:14;;;;;;;2.88;2.58;;;;;;;29.12;26.30;99695.59;5051727;28;20563;-58
2021/07/26 11:24:46;;;;;;;4.10;2.60;;;;;;;28.96;25.95;99692.03;5029661;28;20045;-58
2021/07/26 11:27:21;;;;;;;5.65;2.70;;;;;;;28.98;26.60;99692.50;5030348;28;20045;-58
2021/07/26 11:29:53;;;;;;;5.20;2.70;;;;;;;28.87;26.20;99697.69;5030681;28;20159;-59
2021/07/26 11:32:26;;;;;;;4.18;2.83;;;;;;;28.69;26.42;99704.63;5027099;28;20041;-58
2021/07/26 11:34:55;;;;;;;3.45;2.60;;;;;;;28.53;26.75;99701.88;5028577;28;20049;-59